createdAt,value
2022-11-28T00:00:20.795Z,101391.60
2022-11-28T00:05:47.114Z,101384.20
2022-11-28T00:10:50.269Z,101387.80
2022-11-28T00:16:02.429Z,101376.60
2022-11-28T00:21:09.760Z,101379.80
2022-11-28T00:26:39.486Z,101380.60
2022-11-28T00:31:44.067Z,101387.00
2022-11-28T00:36:47.962Z,101383.60
2022-11-28T00:41:50.924Z,101380.80
2022-11-28T00:46:53.921Z,101370.80
2022-11-28T00:51:56.960Z,101374.60
2022-11-28T00:56:59.893Z,101368.00
2022-11-28T01:02:02.916Z,101370.40
2022-11-28T01:07:05.819Z,101368.00
2022-11-28T01:12:08.768Z,101362.80
2022-11-28T01:17:11.726Z,101363.80
2022-11-28T01:22:14.617Z,101358.20
2022-11-28T01:27:17.602Z,101352.60
2022-11-28T01:32:20.555Z,101347.00
2022-11-28T01:37:23.603Z,101344.20
2022-11-28T01:42:26.913Z,101333.20
2022-11-28T01:47:31.556Z,101333.60
2022-11-28T01:52:38.865Z,101325.00
2022-11-28T01:57:42.848Z,101322.40
2022-11-28T02:02:49.882Z,101321.00
2022-11-28T02:07:54.010Z,101313.20
2022-11-28T02:13:08.827Z,101312.60
2022-11-28T02:18:33.154Z,101312.20
2022-11-28T02:24:10.137Z,101310.00
2022-11-28T02:29:21.871Z,101304.60
2022-11-28T02:35:07.363Z,101302.40
2022-11-28T02:40:19.387Z,101301.20
2022-11-28T02:45:43.829Z,101292.60
2022-11-28T02:51:04.870Z,101287.40
2022-11-28T02:56:11.242Z,101282.80
2022-11-28T03:07:17.614Z,101263.40
2022-11-28T03:12:56.808Z,101264.40
2022-11-28T03:18:14.478Z,101255.40
2022-11-28T03:23:25.762Z,101262.00
2022-11-28T03:29:28.462Z,101263.20
2022-11-28T03:34:45.497Z,101268.20
2022-11-28T03:39:59.360Z,101269.40
2022-11-28T03:45:18.844Z,101265.00
2022-11-28T03:50:31.484Z,101267.60
2022-11-28T03:56:19.771Z,101272.20
2022-11-28T04:01:53.746Z,101270.40
2022-11-28T04:07:05.188Z,101273.40
2022-11-28T04:12:35.988Z,101276.00
2022-11-28T04:18:05.606Z,101269.20
2022-11-28T04:23:17.023Z,101269.40
2022-11-28T04:28:25.902Z,101260.80
2022-11-28T04:33:35.362Z,101258.40
2022-11-28T04:38:40.920Z,101263.00
2022-11-28T04:43:54.886Z,101258.40
2022-11-28T04:48:59.139Z,101260.40
2022-11-28T04:54:24.437Z,101253.00
2022-11-28T04:59:30.528Z,101255.60
2022-11-28T05:04:37.406Z,101255.60
2022-11-28T05:09:40.451Z,101257.00
2022-11-28T05:14:43.614Z,101259.40
2022-11-28T05:19:46.780Z,101255.80
2022-11-28T05:24:49.682Z,101256.80
2022-11-28T05:29:53.671Z,101263.40
2022-11-28T05:34:56.937Z,101271.20
2022-11-28T05:39:59.862Z,101273.60
2022-11-28T05:45:04.541Z,101269.20
2022-11-28T05:50:08.360Z,101263.40
2022-11-28T05:55:11.252Z,101261.40
2022-11-28T06:00:14.828Z,101260.60
2022-11-28T06:05:41.005Z,101260.80
2022-11-28T06:10:41.656Z,101264.00
2022-11-28T06:15:45.197Z,101262.60
2022-11-28T06:20:48.155Z,101261.40
2022-11-28T06:25:51.182Z,101266.60
2022-11-28T06:30:54.121Z,101264.40
2022-11-28T06:36:02.273Z,101264.80
2022-11-28T06:41:10.104Z,101260.60
2022-11-28T06:46:16.793Z,101260.00
2022-11-28T06:51:20.764Z,101272.40
2022-11-28T06:56:24.011Z,101271.80
2022-11-28T07:01:30.667Z,101264.60
2022-11-28T07:06:34.882Z,101265.00
2022-11-28T07:11:41.421Z,101267.80
2022-11-28T07:16:44.384Z,101272.60
2022-11-28T07:21:47.349Z,101272.40
2022-11-28T07:26:50.298Z,101271.60
2022-11-28T07:31:53.382Z,101265.20
2022-11-28T07:36:56.520Z,101267.60
2022-11-28T07:41:59.817Z,101269.40
2022-11-28T07:47:03.599Z,101269.60
2022-11-28T07:52:06.541Z,101265.00
2022-11-28T07:57:13.352Z,101261.20
2022-11-28T08:02:16.899Z,101256.80
2022-11-28T08:07:20.045Z,101255.40
2022-11-28T08:12:23.603Z,101251.60
2022-11-28T08:17:26.993Z,101246.40
2022-11-28T08:22:29.949Z,101245.60
2022-11-28T08:27:33.471Z,101249.00
2022-11-28T08:32:36.393Z,101244.00
2022-11-28T08:37:39.360Z,101247.40
2022-11-28T08:42:42.337Z,101252.40
2022-11-28T08:47:45.670Z,101245.40
2022-11-28T08:52:51.369Z,101247.00
2022-11-28T08:57:54.982Z,101247.40
2022-11-28T09:02:57.908Z,101242.60
2022-11-28T09:08:02.077Z,101244.60
2022-11-28T09:13:06.660Z,101241.40
2022-11-28T09:18:12.391Z,101233.80
2022-11-28T09:23:16.293Z,101235.40
2022-11-28T09:28:19.293Z,101231.00
2022-11-28T09:33:23.379Z,101235.80
2022-11-28T09:38:26.479Z,101232.40
2022-11-28T09:43:45.169Z,101229.20
2022-11-28T09:48:57.284Z,101232.60
2022-11-28T09:54:16.684Z,101231.20
2022-11-28T09:59:30.935Z,101225.20
2022-11-28T10:05:05.483Z,101223.80
2022-11-28T10:10:15.105Z,101212.20
2022-11-28T10:15:49.269Z,101207.20
2022-11-28T10:21:03.811Z,101207.40
2022-11-28T10:26:43.981Z,101199.40
2022-11-28T10:31:50.550Z,101194.60
2022-11-28T10:37:15.286Z,101190.20
2022-11-28T10:42:43.739Z,101183.40
2022-11-28T10:54:02.323Z,101184.00
2022-11-28T10:59:30.582Z,101179.60
2022-11-28T11:04:37.085Z,101180.20
2022-11-28T11:09:42.957Z,101176.80
2022-11-28T11:14:46.980Z,101170.00
2022-11-28T11:19:49.926Z,101167.60
2022-11-28T11:25:17.263Z,101169.20
2022-11-28T11:30:38.984Z,101174.60
2022-11-28T11:35:49.918Z,101174.00
2022-11-28T11:40:54.528Z,101169.20
2022-11-28T11:46:05.327Z,101165.80
2022-11-28T11:51:33.894Z,101160.80
2022-11-28T11:56:43.872Z,101167.40
2022-11-28T12:01:52.010Z,101162.00
2022-11-28T12:07:00.130Z,101163.80
2022-11-28T12:12:22.970Z,101166.40
2022-11-28T12:17:55.770Z,101161.80
2022-11-28T12:24:09.780Z,101170.60
2022-11-28T12:30:14.224Z,101167.00
2022-11-28T12:35:34.866Z,101164.00
2022-11-28T12:41:11.171Z,101163.60
2022-11-28T12:46:48.697Z,101163.80
2022-11-28T12:52:29.159Z,101157.80
2022-11-28T12:58:02.809Z,101152.20
2022-11-28T13:03:36.017Z,101156.80
2022-11-28T13:09:04.974Z,101157.80
2022-11-28T13:14:37.210Z,101158.20
2022-11-28T13:20:17.181Z,101155.80
2022-11-28T13:25:29.081Z,101155.40
2022-11-28T13:30:51.768Z,101157.80
2022-11-28T13:35:57.378Z,101154.80
2022-11-28T13:41:43.299Z,101157.40
2022-11-28T13:46:40.260Z,101161.00
2022-11-28T13:51:43.602Z,101153.60
2022-11-28T13:57:19.014Z,101150.20
2022-11-28T14:02:49.099Z,101146.60
2022-11-28T14:07:52.758Z,101145.40
2022-11-28T14:13:30.934Z,101142.80
2022-11-28T14:19:01.587Z,101142.40
2022-11-28T14:24:40.985Z,101139.60
2022-11-28T14:29:51.864Z,101135.60
2022-11-28T14:34:55.328Z,101132.40
2022-11-28T14:39:58.859Z,101132.40
2022-11-28T14:45:32.472Z,101141.80
2022-11-28T14:50:38.372Z,101141.20
2022-11-28T14:55:41.551Z,101142.40
2022-11-28T15:00:58.143Z,101145.20
2022-11-28T15:06:34.394Z,101140.20
2022-11-28T15:12:14.656Z,101142.60
2022-11-28T15:17:26.476Z,101144.00
2022-11-28T15:22:43.287Z,101145.00
2022-11-28T15:27:46.758Z,101147.00
2022-11-28T15:32:51.374Z,101152.40
2022-11-28T15:37:58.287Z,101149.20
2022-11-28T15:43:09.583Z,101149.40
2022-11-28T15:48:39.702Z,101147.80
2022-11-28T15:53:43.951Z,101145.80
2022-11-28T15:58:48.161Z,101140.00
2022-11-28T16:04:18.427Z,101146.00
2022-11-28T16:09:35.897Z,101152.40
2022-11-28T16:14:45.196Z,101147.40
2022-11-28T16:19:52.639Z,101138.20
2022-11-28T16:24:56.581Z,101144.80
2022-11-28T16:30:01.577Z,101148.40
2022-11-28T16:35:07.354Z,101150.80
2022-11-28T16:40:17.161Z,101146.80
2022-11-28T16:45:32.976Z,101148.60
2022-11-28T16:50:37.632Z,101142.80
2022-11-28T16:55:41.756Z,101147.60
2022-11-28T17:01:00.558Z,101147.60
2022-11-28T17:06:03.716Z,101152.20
2022-11-28T17:11:06.788Z,101147.00
2022-11-28T17:16:20.273Z,101150.80
2022-11-28T17:21:48.057Z,101150.20
2022-11-28T17:26:53.625Z,101145.40
2022-11-28T17:31:58.966Z,101146.40
2022-11-28T17:37:03.139Z,101150.20
2022-11-28T17:42:06.761Z,101145.00
2022-11-28T17:47:09.690Z,101143.20
2022-11-28T17:52:12.592Z,101141.40
2022-11-28T17:57:15.516Z,101137.60
2022-11-28T18:02:18.556Z,101138.40
2022-11-28T18:07:21.983Z,101138.80
2022-11-28T18:12:25.606Z,101144.00
2022-11-28T18:17:28.614Z,101146.20
2022-11-28T18:22:31.801Z,101144.40
2022-11-28T18:27:35.142Z,101147.80
2022-11-28T18:32:38.113Z,101150.20
2022-11-28T18:37:41.091Z,101146.40
2022-11-28T18:42:44.683Z,101150.60
2022-11-28T18:47:48.380Z,101148.40
2022-11-28T18:52:51.909Z,101152.00
2022-11-28T18:57:55.223Z,101159.40
2022-11-28T19:02:58.666Z,101155.40
2022-11-28T19:08:01.820Z,101155.20
2022-11-28T19:13:06.093Z,101153.40
2022-11-28T19:18:09.132Z,101157.40
2022-11-28T19:23:12.157Z,101156.00
2022-11-28T19:28:15.687Z,101164.60
2022-11-28T19:33:18.717Z,101164.60
2022-11-28T19:38:21.720Z,101166.00
2022-11-28T19:43:24.930Z,101165.00
2022-11-28T19:48:31.270Z,101162.80
2022-11-28T19:53:38.038Z,101165.00
2022-11-28T19:58:42.649Z,101167.80
2022-11-28T20:03:48.025Z,101161.40
2022-11-28T20:08:53.460Z,101162.80
2022-11-28T20:14:03.846Z,101161.00
2022-11-28T20:19:07.457Z,101162.60
2022-11-28T20:24:10.888Z,101161.40
2022-11-28T20:29:17.868Z,101158.60
2022-11-28T20:34:20.848Z,101160.00
2022-11-28T20:39:23.985Z,101168.60
2022-11-28T20:44:27.619Z,101167.00
2022-11-28T20:49:30.566Z,101164.20
2022-11-28T20:54:33.537Z,101170.20
2022-11-28T20:59:36.629Z,101170.60
2022-11-28T21:04:39.646Z,101170.00
2022-11-28T21:09:42.939Z,101165.20
2022-11-28T21:14:46.165Z,101167.20
2022-11-28T21:19:49.163Z,101169.80
2022-11-28T21:24:52.068Z,101170.20
2022-11-28T21:29:55.035Z,101171.80
2022-11-28T21:35:03.925Z,101172.40
2022-11-28T21:40:08.890Z,101170.00
2022-11-28T21:45:11.829Z,101170.00
2022-11-28T21:50:14.882Z,101165.60
2022-11-28T21:55:17.832Z,101162.00
2022-11-28T22:00:45.984Z,101162.60
2022-11-28T22:05:44.000Z,101160.80
2022-11-28T22:10:47.301Z,101156.40
2022-11-28T22:15:50.310Z,101158.00
2022-11-28T22:21:06.581Z,101160.80
2022-11-28T22:26:16.089Z,101159.60
2022-11-28T22:31:19.198Z,101164.40
2022-11-28T22:36:23.509Z,101156.80
2022-11-28T22:41:29.759Z,101154.40
2022-11-28T22:46:33.663Z,101158.20
2022-11-28T22:51:37.209Z,101151.20
2022-11-28T22:56:41.027Z,101145.20
2022-11-28T23:01:44.094Z,101148.40
2022-11-28T23:06:47.207Z,101153.00
2022-11-28T23:11:50.290Z,101145.60
2022-11-28T23:16:53.343Z,101155.40
2022-11-28T23:21:56.320Z,101155.80
2022-11-28T23:26:59.213Z,101149.40
2022-11-28T23:32:02.189Z,101152.20
2022-11-28T23:37:05.143Z,101156.20
2022-11-28T23:42:08.037Z,101155.80
2022-11-28T23:47:10.988Z,101150.40
2022-11-28T23:52:13.899Z,101151.80
2022-11-28T23:57:17.188Z,101153.40
